Time;durP1;ratioP1;P1;durP2;ratioP2;P2;SDS_P1;SDS_P2;PMS_P1;PMS_P2;Temp;Humidity;BMP_temperature;BMP_pressure;BME280_temperature;BME280_humidity;BME280_pressure;Samples;Min_cycle;Max_cycle;Signal;HPM_P1;HPM_P2
2023/07/24 00:01:13;;;;;;;9.43;5.90;;;;;;;20.04;72.86;94827.41;5070822;28;20964;-74
2023/07/24 00:03:39;;;;;;;9.88;6.32;;;;;;;20.02;73.99;94824.25;5072500;28;20195;-74
2023/07/24 00:06:08;;;;;;;12.38;5.95;;;;;;;19.97;74.01;94828.16;5072083;28;20272;-74
2023/07/24 00:08:34;;;;;;;12.43;5.90;;;;;;;19.84;74.54;94824.91;5072545;28;20195;-74
2023/07/24 00:11:02;;;;;;;11.02;5.70;;;;;;;19.84;74.71;94824.91;5072049;28;20223;-74
2023/07/24 00:13:29;;;;;;;13.02;6.78;;;;;;;19.76;75.51;94825.25;5081523;28;20230;-74
2023/07/24 00:15:56;;;;;;;10.73;7.20;;;;;;;19.72;76.28;94819.72;5074793;28;20209;-74
2023/07/24 00:18:23;;;;;;;11.57;6.43;;;;;;;19.67;77.51;94813.81;5072197;28;20203;-74
2023/07/24 00:20:50;;;;;;;10.10;5.50;;;;;;;19.67;77.12;94816.56;5072199;28;20207;-74
2023/07/24 00:23:18;;;;;;;10.50;5.60;;;;;;;19.62;78.56;94819.66;5072612;28;20827;-74
2023/07/24 00:25:44;;;;;;;9.10;5.53;;;;;;;19.58;79.26;94825.09;5085411;28;20543;-74
2023/07/24 00:28:11;;;;;;;12.27;5.97;;;;;;;19.42;80.04;94821.78;5071865;28;20208;-74
2023/07/24 00:30:38;;;;;;;10.48;5.70;;;;;;;19.37;80.99;94822.16;5075792;28;20271;-74
2023/07/24 00:33:05;;;;;;;9.75;6.10;;;;;;;19.34;82.24;94823.69;5081039;28;20322;-74
2023/07/24 00:35:32;;;;;;;10.05;6.22;;;;;;;19.28;82.20;94818.91;5074717;28;20211;-74
2023/07/24 00:37:58;;;;;;;10.43;5.65;;;;;;;19.31;82.65;94812.66;5071907;28;20203;-74
2023/07/24 00:40:27;;;;;;;10.18;6.10;;;;;;;19.26;82.50;94810.28;5071591;28;20529;-74
2023/07/24 00:42:53;;;;;;;9.45;5.75;;;;;;;19.23;82.63;94816.53;5071492;28;20187;-74
2023/07/24 00:45:22;;;;;;;11.60;7.28;;;;;;;19.21;82.71;94808.66;5071839;28;20557;-74
2023/07/24 00:47:49;;;;;;;9.90;6.05;;;;;;;19.20;83.13;94817.28;5070949;28;20561;-74
2023/07/24 00:50:16;;;;;;;10.25;7.18;;;;;;;19.18;82.80;94815.69;5071633;28;20568;-74
2023/07/24 00:52:43;;;;;;;12.05;7.00;;;;;;;19.16;82.33;94807.03;5071367;28;20697;-74
2023/07/24 00:55:11;;;;;;;13.27;6.03;;;;;;;19.16;82.60;94817.22;5078542;28;20215;-74
2023/07/24 00:57:40;;;;;;;9.73;6.75;;;;;;;19.15;82.88;94810.94;5071336;28;20261;-74
2023/07/24 01:00:09;;;;;;;12.77;6.60;;;;;;;19.28;82.89;94803.22;5084785;28;20559;-74
2023/07/24 01:02:36;;;;;;;8.48;5.28;;;;;;;19.29;82.66;94809.50;5071334;28;20195;-74
2023/07/24 01:05:03;;;;;;;10.27;5.55;;;;;;;19.22;82.32;94810.25;5071162;28;20211;-74
2023/07/24 01:07:30;;;;;;;9.75;5.55;;;;;;;19.10;81.78;94808.56;5071596;28;20222;-74
2023/07/24 01:09:57;;;;;;;9.55;5.53;;;;;;;19.13;81.94;94807.03;5069161;28;20203;-74
2023/07/24 01:12:32;;;;;;;10.07;5.60;;;;;;;19.10;82.66;94805.81;5070454;28;20232;-74
2023/07/24 01:15:07;;;;;;;13.25;6.18;;;;;;;19.16;82.44;94804.28;5061496;28;20198;-74
2023/07/24 01:17:40;;;;;;;11.57;5.88;;;;;;;19.06;82.07;94802.22;5070801;28;20183;-74
2023/07/24 01:20:11;;;;;;;8.93;5.47;;;;;;;19.09;82.23;94804.22;5071346;28;20191;-74
2023/07/24 01:22:41;;;;;;;10.73;5.50;;;;;;;19.10;81.98;94808.56;5070908;28;20647;-74
2023/07/24 01:25:19;;;;;;;10.52;6.13;;;;;;;19.06;81.90;94793.19;5070929;28;20764;-74
2023/07/24 01:27:47;;;;;;;15.18;5.55;;;;;;;19.07;81.15;94792.84;5073824;28;20225;-74
2023/07/24 01:30:17;;;;;;;9.80;6.03;;;;;;;19.06;81.61;94788.50;5080200;28;20668;-74
2023/07/24 01:32:44;;;;;;;13.15;6.25;;;;;;;19.11;81.52;94788.16;5057717;28;20708;-74
2023/07/24 01:35:11;;;;;;;9.15;5.85;;;;;;;19.10;82.46;94792.09;5070945;28;20199;-74
2023/07/24 01:37:40;;;;;;;10.75;5.93;;;;;;;19.11;82.87;94782.69;5070801;28;20309;-74
2023/07/24 01:40:08;;;;;;;12.15;6.22;;;;;;;19.11;82.88;94782.69;5070867;28;20199;-74
2023/07/24 01:42:35;;;;;;;10.73;5.95;;;;;;;19.14;82.15;94776.41;5070099;28;20703;-74
2023/07/24 01:45:05;;;;;;;12.55;5.78;;;;;;;19.12;81.25;94806.22;5071054;28;20225;-74
2023/07/24 01:47:32;;;;;;;10.38;6.00;;;;;;;18.96;81.83;94819.41;5069875;28;20206;-74
2023/07/24 01:49:58;;;;;;;9.93;5.63;;;;;;;18.66;82.40;94815.91;5069836;28;20653;-74
2023/07/24 01:52:25;;;;;;;9.68;5.30;;;;;;;18.56;82.58;94827.53;5069485;28;20284;-74
2023/07/24 01:54:52;;;;;;;12.40;6.63;;;;;;;18.53;83.33;94811.81;5070634;28;20195;-74
2023/07/24 01:57:19;;;;;;;9.85;5.93;;;;;;;18.68;82.76;94805.34;5070720;28;20207;-74
2023/07/24 01:59:45;;;;;;;12.93;6.30;;;;;;;18.72;81.16;94808.94;5073120;28;20217;-74
2023/07/24 02:02:14;;;;;;;11.50;5.53;;;;;;;18.78;82.25;94807.41;5067010;28;20650;-73
2023/07/24 02:04:40;;;;;;;9.73;5.43;;;;;;;18.78;82.27;94808.22;5069740;28;20195;-73
2023/07/24 02:07:07;;;;;;;15.50;5.95;;;;;;;18.77;82.44;94803.09;5070266;28;20642;-73
2023/07/24 02:09:34;;;;;;;8.95;5.07;;;;;;;18.79;82.51;94803.50;5070304;28;20736;-74
2023/07/24 02:12:02;;;;;;;10.05;5.85;;;;;;;18.78;83.14;94807.41;5069356;28;20219;-73
2023/07/24 02:14:29;;;;;;;9.77;5.88;;;;;;;18.89;83.19;94796.56;5069534;28;20195;-74
2023/07/24 02:16:55;;;;;;;8.57;5.47;;;;;;;18.90;82.62;94795.38;5070227;28;20194;-73
2023/07/24 02:19:23;;;;;;;10.95;5.70;;;;;;;18.87;82.26;94798.88;5069970;28;20195;-73
2023/07/24 02:21:50;;;;;;;13.85;5.85;;;;;;;18.75;81.46;94788.94;5069442;28;20191;-74
2023/07/24 02:24:17;;;;;;;10.57;5.70;;;;;;;18.63;82.52;94786.47;5068880;28;20206;-74
2023/07/24 02:26:44;;;;;;;12.55;6.30;;;;;;;18.60;82.79;94795.44;5069624;28;20294;-74
2023/07/24 02:29:11;;;;;;;7.00;4.45;;;;;;;18.65;82.39;94787.69;5069670;28;20207;-73
2023/07/24 02:31:37;;;;;;;11.30;5.60;;;;;;;18.71;81.81;94797.16;5068861;28;20229;-74
2023/07/24 02:34:04;;;;;;;11.15;5.47;;;;;;;18.79;80.52;94792.53;5069436;28;20230;-74
2023/07/24 02:36:32;;;;;;;12.70;6.45;;;;;;;18.75;80.81;94791.69;5069306;28;20199;-74
2023/07/24 02:38:59;;;;;;;12.88;6.35;;;;;;;18.67;80.21;94795.53;5069339;28;20203;-73
2023/07/24 02:41:26;;;;;;;11.18;6.00;;;;;;;18.72;79.80;94787.75;5068551;28;20650;-73
2023/07/24 02:43:53;;;;;;;11.65;6.47;;;;;;;18.70;79.94;94786.56;5069119;28;20203;-73
2023/07/24 02:46:19;;;;;;;8.57;5.43;;;;;;;18.72;79.46;94793.22;5069518;28;20195;-74
2023/07/24 02:48:46;;;;;;;11.82;5.65;;;;;;;18.67;79.68;94790.84;5068698;28;20745;-74
2023/07/24 02:51:13;;;;;;;14.90;7.25;;;;;;;18.72;80.03;94792.47;5068546;28;20199;-74
2023/07/24 02:53:41;;;;;;;12.02;5.03;;;;;;;18.78;79.95;94799.19;5069115;28;20306;-75
2023/07/24 02:56:08;;;;;;;13.68;6.03;;;;;;;18.78;79.69;94790.94;5069262;28;20195;-74
2023/07/24 02:58:34;;;;;;;12.57;5.95;;;;;;;18.82;79.82;94797.28;5068461;28;20678;-75
2023/07/24 03:01:06;;;;;;;11.13;7.28;;;;;;;18.73;80.22;94781.09;5068526;28;20195;-74
2023/07/24 03:03:33;;;;;;;17.58;6.38;;;;;;;18.84;80.63;94794.94;5063739;28;20199;-74
2023/07/24 03:06:00;;;;;;;9.98;5.45;;;;;;;18.94;80.43;94783.28;5069394;28;20199;-74
2023/07/24 03:08:26;;;;;;;11.75;5.78;;;;;;;18.93;80.22;94787.19;5069148;28;20650;-74
2023/07/24 03:10:55;;;;;;;13.15;6.25;;;;;;;19.01;79.98;94791.56;5068378;28;20789;-74
2023/07/24 03:13:21;;;;;;;12.95;6.10;;;;;;;18.98;78.67;94784.13;5069004;28;20219;-74
2023/07/24 03:15:53;;;;;;;12.02;5.93;;;;;;;18.99;78.50;94780.22;5068970;28;20210;-74
2023/07/24 03:18:21;;;;;;;11.13;5.88;;;;;;;18.95;79.26;94784.88;5069246;28;20211;-74
2023/07/24 03:20:47;;;;;;;12.52;6.57;;;;;;;19.01;78.71;94783.34;5075768;28;20214;-74
2023/07/24 03:23:14;;;;;;;13.13;6.00;;;;;;;19.09;78.11;94779.50;5069026;28;20199;-74
2023/07/24 03:25:41;;;;;;;11.95;6.70;;;;;;;19.32;77.76;94784.03;5069195;28;20205;-75
2023/07/24 03:28:10;;;;;;;11.20;5.93;;;;;;;19.45;77.19;94779.81;5068942;28;20236;-74
2023/07/24 03:30:37;;;;;;;10.32;6.35;;;;;;;19.63;77.07;94789.03;5068542;28;20274;-74
2023/07/24 03:33:03;;;;;;;12.50;6.57;;;;;;;19.65;76.95;94786.69;5068687;28;20246;-74
2023/07/24 03:35:30;;;;;;;28.83;7.30;;;;;;;19.51;78.70;94792.06;5068946;28;20219;-74
2023/07/24 03:37:57;;;;;;;15.27;6.30;;;;;;;19.73;77.58;94796.56;5068702;28;20256;-74
2023/07/24 03:40:24;;;;;;;13.20;6.22;;;;;;;20.22;75.44;94790.59;5069179;28;20260;-74
2023/07/24 03:42:51;;;;;;;12.32;6.50;;;;;;;20.68;73.49;94789.25;5068586;28;20199;-74
2023/07/24 03:45:19;;;;;;;18.80;5.78;;;;;;;21.10;70.97;94783.84;5068674;28;20203;-74
2023/07/24 03:47:45;;;;;;;19.70;7.40;;;;;;;21.66;68.59;94776.84;5068431;28;20203;-74
2023/07/24 03:50:12;;;;;;;17.65;5.40;;;;;;;22.03;65.39;94778.38;5066538;28;20191;-78
2023/07/24 03:52:39;;;;;;;14.65;4.63;;;;;;;22.19;62.15;94781.50;5068489;28;20191;-78
2023/07/24 03:55:07;;;;;;;13.57;7.05;;;;;;;21.92;61.21;94786.66;5068385;28;20199;-78
2023/07/24 03:57:34;;;;;;;11.63;6.35;;;;;;;21.72;63.42;94782.75;5068341;28;20201;-78
2023/07/24 04:00:01;;;;;;;13.93;6.15;;;;;;;21.10;65.30;94789.38;5070166;28;20206;-78
2023/07/24 04:02:29;;;;;;;15.95;9.88;;;;;;;20.60;70.11;94793.16;5068513;28;20198;-78
2023/07/24 04:04:56;;;;;;;14.70;8.48;;;;;;;20.30;71.91;94791.41;5068513;28;20731;-75
2023/07/24 04:07:23;;;;;;;14.40;9.75;;;;;;;20.70;70.33;94795.16;5068712;28;20202;-80
2023/07/24 04:09:49;;;;;;;12.15;6.60;;;;;;;21.58;67.93;94791.81;5068298;28;20207;-80
2023/07/24 04:12:16;;;;;;;14.55;8.88;;;;;;;22.07;62.47;94790.22;5068447;28;20199;-80
2023/07/24 04:14:43;;;;;;;19.48;11.07;;;;;;;22.50;58.95;94796.41;5068383;28;20227;-80
2023/07/24 04:17:10;;;;;;;19.83;9.80;;;;;;;23.09;57.84;94794.63;5068665;28;20217;-81
2023/07/24 04:19:38;;;;;;;15.07;8.00;;;;;;;23.74;55.25;94801.28;5068470;28;20276;-80
2023/07/24 04:22:05;;;;;;;20.88;8.90;;;;;;;24.69;52.96;94805.13;5068883;28;20199;-76
2023/07/24 04:24:31;;;;;;;17.15;8.10;;;;;;;25.87;50.50;94797.97;5066194;28;20202;-76
2023/07/24 04:26:58;;;;;;;18.90;10.43;;;;;;;26.43;47.92;94793.44;5068471;28;20199;-77
2023/07/24 04:29:25;;;;;;;13.82;7.70;;;;;;;26.40;49.00;94785.94;5067892;28;20207;-77
2023/07/24 04:31:52;;;;;;;16.10;8.38;;;;;;;25.62;50.86;94788.06;5067911;28;20230;-76
2023/07/24 04:34:19;;;;;;;19.88;8.43;;;;;;;26.00;50.76;94780.28;5067225;28;20226;-77
2023/07/24 04:36:48;;;;;;;18.52;9.93;;;;;;;26.49;50.44;94786.19;5067629;28;20199;-76
2023/07/24 04:39:14;;;;;;;15.85;7.43;;;;;;;25.81;50.98;94783.78;5054906;28;20245;-76
2023/07/24 04:41:41;;;;;;;22.80;11.38;;;;;;;26.53;48.71;94790.44;5068413;28;20264;-77
2023/07/24 04:44:08;;;;;;;15.82;8.23;;;;;;;27.58;46.18;94774.75;5068013;28;20260;-77
2023/07/24 04:46:35;;;;;;;14.23;7.63;;;;;;;28.38;44.63;94785.53;5067158;28;20218;-76
2023/07/24 04:49:01;;;;;;;15.70;7.25;;;;;;;27.91;44.90;94780.31;5080321;28;20206;-77
2023/07/24 04:51:28;;;;;;;15.40;9.80;;;;;;;27.76;43.76;94784.66;5076906;28;20191;-77
2023/07/24 04:53:56;;;;;;;16.75;8.13;;;;;;;27.67;43.06;94784.50;5071199;28;20234;-77
2023/07/24 04:56:23;;;;;;;15.07;7.75;;;;;;;28.86;41.30;94790.97;5070932;28;20199;-76
2023/07/24 04:58:50;;;;;;;16.33;10.10;;;;;;;28.90;41.39;94788.88;5071428;28;20351;-76
2023/07/24 05:01:16;;;;;;;15.30;9.63;;;;;;;29.41;41.31;94788.19;5073195;28;20260;-77
2023/07/24 05:03:43;;;;;;;16.27;10.25;;;;;;;29.24;40.70;94795.88;5071741;28;20191;-77
2023/07/24 05:06:10;;;;;;;15.77;10.23;;;;;;;29.48;40.77;94794.38;5071950;28;20195;-77
2023/07/24 05:08:37;;;;;;;17.42;10.10;;;;;;;30.50;39.97;94788.66;5071546;28;20258;-77
2023/07/24 05:11:05;;;;;;;14.45;9.73;;;;;;;30.54;38.72;94786.53;5071363;28;20729;-77
2023/07/24 05:13:31;;;;;;;15.27;9.82;;;;;;;31.54;37.45;94792.84;5071462;28;20234;-77
2023/07/24 05:15:58;;;;;;;13.95;9.35;;;;;;;31.36;39.01;94793.53;5071021;28;20297;-76
2023/07/24 05:18:25;;;;;;;15.82;10.27;;;;;;;32.08;38.10;94785.91;5070565;28;20195;-77
2023/07/24 05:20:52;;;;;;;15.88;9.95;;;;;;;32.15;37.24;94791.22;5070557;28;20199;-76
2023/07/24 05:23:19;;;;;;;16.92;9.98;;;;;;;33.19;36.08;94786.31;5071162;28;20207;-77
2023/07/24 05:25:45;;;;;;;15.00;9.95;;;;;;;33.16;35.38;94784.44;5071316;28;20191;-77
2023/07/24 05:28:13;;;;;;;15.90;11.00;;;;;;;33.24;34.26;94795.34;5071115;28;20203;-77
2023/07/24 05:30:40;;;;;;;15.55;10.43;;;;;;;33.52;34.04;94794.06;5070911;28;20674;-77
2023/07/24 05:33:07;;;;;;;15.70;10.32;;;;;;;34.38;32.09;94785.91;5071101;28;20231;-77
2023/07/24 05:35:34;;;;;;;18.80;11.35;;;;;;;34.99;31.58;94789.19;5071068;28;20245;-77
2023/07/24 05:38:00;;;;;;;15.32;10.50;;;;;;;34.56;31.40;94791.41;5071203;28;20340;-76
2023/07/24 05:40:28;;;;;;;17.13;10.90;;;;;;;34.33;31.72;94783.72;5070816;28;20203;-76
2023/07/24 05:42:54;;;;;;;21.58;12.27;;;;;;;32.69;33.99;94789.75;5070738;28;20709;-76
2023/07/24 05:45:22;;;;;;;14.55;10.13;;;;;;;32.92;33.41;94786.38;5063005;28;20208;-77
2023/07/24 05:47:49;;;;;;;18.80;12.45;;;;;;;34.02;32.63;94778.44;5060265;28;20560;-77
2023/07/24 05:50:16;;;;;;;15.77;10.63;;;;;;;34.08;31.83;94772.91;5071017;28;20578;-76
2023/07/24 05:52:43;;;;;;;19.83;11.40;;;;;;;33.07;33.38;94781.66;5069476;28;20198;-76
2023/07/24 05:55:10;;;;;;;23.13;11.07;;;;;;;31.90;35.35;94777.44;5070352;28;20215;-77
2023/07/24 05:57:37;;;;;;;17.48;11.02;;;;;;;31.27;37.20;94773.09;5070677;28;20195;-77
2023/07/24 06:00:04;;;;;;;18.65;10.60;;;;;;;31.89;35.80;94775.88;5072007;28;20211;-77
2023/07/24 06:02:32;;;;;;;19.63;10.70;;;;;;;32.13;35.72;94760.06;5069962;28;20289;-77
2023/07/24 06:04:59;;;;;;;15.55;10.13;;;;;;;32.07;35.65;94762.69;5069573;28;20650;-75
2023/07/24 06:07:26;;;;;;;17.52;10.73;;;;;;;31.91;36.24;94759.38;5070494;28;20218;-78
2023/07/24 06:09:53;;;;;;;16.15;10.30;;;;;;;31.48;37.17;94761.06;5070226;28;20296;-77
2023/07/24 06:12:20;;;;;;;14.60;9.25;;;;;;;31.59;37.35;94755.81;5070364;28;20203;-77
2023/07/24 06:14:46;;;;;;;14.15;9.25;;;;;;;32.60;36.44;94764.50;5056325;28;20276;-78
2023/07/24 06:17:13;;;;;;;14.95;9.23;;;;;;;33.41;35.53;94760.84;5070056;28;20203;-78
2023/07/24 06:19:41;;;;;;;12.45;8.15;;;;;;;33.95;35.57;94758.31;5057248;28;20207;-75
2023/07/24 06:22:08;;;;;;;11.90;8.73;;;;;;;33.43;35.66;94763.19;5070758;28;20271;-77
2023/07/24 06:24:35;;;;;;;13.23;8.43;;;;;;;32.46;36.59;94766.69;5070115;28;20874;-76
2023/07/24 06:27:02;;;;;;;13.30;8.88;;;;;;;33.20;35.61;94756.22;5070637;28;20214;-78
2023/07/24 06:29:29;;;;;;;12.38;8.50;;;;;;;35.08;33.11;94752.50;5070023;28;20659;-78
2023/07/24 06:31:55;;;;;;;15.15;8.85;;;;;;;35.31;33.04;94747.28;5070106;28;20242;-78
2023/07/24 06:34:22;;;;;;;15.07;9.15;;;;;;;34.46;33.65;94758.94;5070324;28;20230;-78
2023/07/24 06:36:50;;;;;;;14.68;8.75;;;;;;;33.74;34.74;94765.72;5070256;28;20541;-78
2023/07/24 06:39:17;;;;;;;13.32;8.05;;;;;;;33.69;35.35;94758.72;5070181;28;20210;-76
2023/07/24 06:41:44;;;;;;;13.13;9.05;;;;;;;33.12;36.29;94761.34;5069819;28;20620;-77
2023/07/24 06:44:10;;;;;;;14.18;8.63;;;;;;;32.78;36.57;94753.31;5069470;28;20206;-77
2023/07/24 06:46:37;;;;;;;10.70;8.15;;;;;;;34.55;34.84;94755.31;5069036;28;20203;-77
2023/07/24 06:49:04;;;;;;;15.00;9.10;;;;;;;34.63;33.99;94750.06;5069471;28;20248;-77
2023/07/24 06:51:31;;;;;;;13.38;9.00;;;;;;;33.28;35.96;94767.91;5083001;28;20285;-75
2023/07/24 06:53:59;;;;;;;14.00;8.73;;;;;;;34.01;34.78;94747.97;5069034;28;20288;-76
2023/07/24 06:56:26;;;;;;;13.55;8.75;;;;;;;34.67;34.53;94750.66;5082868;28;20619;-76
2023/07/24 06:58:53;;;;;;;12.32;8.27;;;;;;;33.94;35.00;94759.56;5069574;28;20198;-76
2023/07/24 07:01:20;;;;;;;15.00;9.15;;;;;;;33.33;35.54;94770.09;5085078;28;20211;-76
2023/07/24 07:03:46;;;;;;;12.60;8.57;;;;;;;33.47;36.16;94770.22;5069511;28;20210;-76
2023/07/24 07:06:13;;;;;;;12.75;8.82;;;;;;;33.44;36.04;94770.38;5069712;28;20206;-77
2023/07/24 07:08:40;;;;;;;14.23;8.95;;;;;;;33.61;35.89;94774.38;5069403;28;20199;-76
2023/07/24 07:11:08;;;;;;;13.65;8.40;;;;;;;33.48;36.57;94776.59;5068990;28;20697;-76
2023/07/24 07:13:35;;;;;;;12.80;8.52;;;;;;;33.66;35.88;94765.28;5069884;28;20209;-77
2023/07/24 07:16:02;;;;;;;14.38;7.45;;;;;;;35.00;34.51;94761.81;5069183;28;20210;-77
2023/07/24 07:18:29;;;;;;;10.77;7.65;;;;;;;34.13;34.85;94766.66;5069472;28;20669;-75
2023/07/24 07:20:55;;;;;;;12.60;8.30;;;;;;;32.83;37.06;94766.69;5069333;28;20207;-76
2023/07/24 07:23:22;;;;;;;11.07;7.50;;;;;;;33.47;36.98;94764.59;5069728;28;20218;-76
2023/07/24 07:25:50;;;;;;;13.73;8.27;;;;;;;34.40;34.80;94749.63;5068995;28;20203;-77
2023/07/24 07:28:18;;;;;;;15.35;7.78;;;;;;;33.02;36.51;94757.03;5069044;28;20203;-77
2023/07/24 07:30:45;;;;;;;11.05;8.50;;;;;;;32.34;37.93;94753.59;5068906;28;20199;-77
2023/07/24 07:33:12;;;;;;;10.93;7.88;;;;;;;33.20;36.61;94756.22;5069163;28;20702;-77
2023/07/24 07:35:39;;;;;;;11.82;7.95;;;;;;;34.18;35.09;94746.28;5068102;28;20561;-76
2023/07/24 07:38:06;;;;;;;10.73;7.93;;;;;;;33.78;35.42;94750.25;5068940;28;20210;-75
2023/07/24 07:40:32;;;;;;;10.52;7.45;;;;;;;33.87;36.55;94747.44;5068432;28;20203;-77
2023/07/24 07:42:59;;;;;;;13.02;8.63;;;;;;;33.13;37.10;94740.44;5069223;28;20692;-76
2023/07/24 07:45:27;;;;;;;12.73;8.43;;;;;;;33.04;36.37;94748.13;5069158;28;20202;-75
2023/07/24 07:47:54;;;;;;;11.57;8.40;;;;;;;33.26;36.00;94754.34;5068765;28;20591;-76
2023/07/24 07:50:21;;;;;;;10.50;7.88;;;;;;;34.04;35.54;94749.81;5069479;28;20706;-76
2023/07/24 07:52:50;;;;;;;12.45;8.68;;;;;;;33.16;37.19;94750.75;5069007;28;20252;-76
2023/07/24 07:55:17;;;;;;;12.55;8.65;;;;;;;32.40;37.34;94746.09;5069069;28;20230;-74
2023/07/24 07:57:44;;;;;;;10.57;8.20;;;;;;;32.34;37.48;94750.78;5068867;28;20231;-76
2023/07/24 08:00:12;;;;;;;13.82;9.05;;;;;;;33.92;36.18;94737.53;5070983;28;20199;-76
2023/07/24 08:02:40;;;;;;;11.95;8.05;;;;;;;34.62;35.01;94740.84;5068859;28;20305;-76
2023/07/24 08:05:08;;;;;;;14.18;9.73;;;;;;;34.49;34.48;94735.47;5055401;28;20202;-76
2023/07/24 08:07:35;;;;;;;15.35;8.68;;;;;;;34.08;34.88;94744.81;5069127;28;20348;-76
2023/07/24 08:10:01;;;;;;;14.18;8.68;;;;;;;33.69;36.85;94741.84;5068936;28;20233;-77
2023/07/24 08:12:28;;;;;;;12.48;8.85;;;;;;;33.82;36.84;94741.66;5069245;28;20199;-76
2023/07/24 08:14:56;;;;;;;13.77;8.65;;;;;;;33.98;34.98;94738.47;5068841;28;20611;-76
2023/07/24 08:17:23;;;;;;;14.93;9.18;;;;;;;32.64;36.56;94745.50;5082385;28;20211;-75
2023/07/24 08:19:51;;;;;;;13.85;9.00;;;;;;;32.01;37.61;94747.72;5068895;28;20241;-76
2023/07/24 08:22:19;;;;;;;13.00;8.88;;;;;;;32.04;38.59;94740.41;5069938;28;20253;-75
2023/07/24 08:24:46;;;;;;;10.32;7.88;;;;;;;33.04;36.70;94731.28;5081184;28;20289;-76
2023/07/24 08:27:13;;;;;;;12.75;8.77;;;;;;;33.49;35.77;94725.53;5077878;28;20206;-77
2023/07/24 08:29:40;;;;;;;14.15;9.23;;;;;;;32.45;37.22;94725.84;5072527;28;20215;-77
2023/07/24 08:32:07;;;;;;;16.50;9.65;;;;;;;31.99;37.45;94715.78;5073837;28;20767;-76
2023/07/24 08:34:34;;;;;;;14.30;9.10;;;;;;;32.49;37.23;94723.66;5084411;28;20707;-77
2023/07/24 08:37:02;;;;;;;14.57;9.13;;;;;;;32.88;36.12;94718.38;5072756;28;20249;-76
2023/07/24 08:39:29;;;;;;;14.82;9.43;;;;;;;33.04;36.99;94715.22;5072604;28;20269;-77
2023/07/24 08:41:57;;;;;;;15.57;9.48;;;;;;;32.12;37.84;94713.63;5072413;28;20702;-77
2023/07/24 08:44:26;;;;;;;14.85;9.50;;;;;;;30.44;40.70;94720.56;5072348;28;20669;-76
2023/07/24 08:46:53;;;;;;;16.35;10.07;;;;;;;30.04;40.94;94710.75;5058597;28;20662;-77
2023/07/24 08:49:20;;;;;;;14.90;9.55;;;;;;;30.84;39.33;94710.31;5071978;28;20215;-76
2023/07/24 08:51:48;;;;;;;14.38;9.57;;;;;;;31.86;37.73;94696.31;5071611;28;20218;-76
2023/07/24 08:54:16;;;;;;;14.85;9.68;;;;;;;32.29;38.04;94709.31;5071904;28;20203;-77
2023/07/24 08:56:47;;;;;;;13.02;8.80;;;;;;;33.10;36.01;94707.69;5072078;28;20207;-76
2023/07/24 08:59:14;;;;;;;13.65;9.48;;;;;;;32.83;35.62;94704.94;5072185;28;20294;-76
2023/07/24 09:01:40;;;;;;;15.18;10.10;;;;;;;32.36;36.39;94706.22;5085588;28;20210;-77
2023/07/24 09:04:07;;;;;;;13.90;9.55;;;;;;;31.87;37.12;94702.69;5084144;28;20707;-76
2023/07/24 09:06:34;;;;;;;14.90;9.60;;;;;;;31.74;38.32;94709.22;5072463;28;20211;-76
2023/07/24 09:09:12;;;;;;;17.85;9.00;;;;;;;32.13;36.56;94698.38;5071303;28;20199;-76
2023/07/24 09:11:48;;;;;;;14.85;9.73;;;;;;;32.19;37.16;94704.19;5059707;28;20209;-76
2023/07/24 09:14:22;;;;;;;17.45;9.90;;;;;;;32.11;37.15;94700.88;5071382;28;20193;-75
2023/07/24 09:16:48;;;;;;;18.08;10.60;;;;;;;31.97;37.53;94698.69;5071549;28;20203;-74
2023/07/24 09:19:19;;;;;;;15.77;10.05;;;;;;;31.84;37.92;94695.25;5071460;28;20288;-75
2023/07/24 09:21:45;;;;;;;14.88;9.77;;;;;;;32.47;37.31;94700.91;5071341;28;20249;-75
2023/07/24 09:24:13;;;;;;;17.10;10.50;;;;;;;32.71;35.81;94691.84;5085124;28;20233;-75
2023/07/24 09:26:52;;;;;;;17.55;10.43;;;;;;;32.34;37.69;94691.88;5071372;28;20211;-77
2023/07/24 09:29:19;;;;;;;17.40;10.02;;;;;;;32.85;35.71;94682.81;5071878;28;20315;-77
2023/07/24 09:31:46;;;;;;;16.55;10.02;;;;;;;33.18;34.95;94680.84;5070931;28;20980;-77
2023/07/24 09:34:17;;;;;;;13.93;10.15;;;;;;;32.49;37.64;94673.19;5077479;28;20198;-77
2023/07/24 09:36:44;;;;;;;15.75;9.77;;;;;;;32.97;35.14;94670.59;5077649;28;20684;-77
2023/07/24 09:39:11;;;;;;;15.73;9.60;;;;;;;33.66;35.16;94661.28;5071616;28;20310;-76
2023/07/24 09:41:39;;;;;;;16.52;9.55;;;;;;;33.87;34.36;94651.84;5071321;28;20281;-77
2023/07/24 09:44:07;;;;;;;13.95;8.73;;;;;;;33.65;34.30;94651.31;5078623;28;20202;-76
2023/07/24 09:46:34;;;;;;;15.77;9.80;;;;;;;33.48;34.97;94650.94;5063506;28;20259;-76
2023/07/24 09:49:02;;;;;;;13.80;9.52;;;;;;;33.52;34.06;94647.94;5071034;28;20206;-76
2023/07/24 09:51:31;;;;;;;18.42;9.82;;;;;;;33.29;35.20;94649.47;5071115;28;20203;-76
2023/07/24 09:54:05;;;;;;;15.73;10.07;;;;;;;33.52;34.80;94631.09;5070853;28;20703;-77
2023/07/24 09:56:33;;;;;;;14.70;9.45;;;;;;;33.10;34.51;94639.53;5071092;28;20223;-77
2023/07/24 09:59:03;;;;;;;16.17;10.15;;;;;;;32.56;36.11;94637.63;5070914;28;20218;-76
2023/07/24 10:01:32;;;;;;;17.85;9.95;;;;;;;32.57;36.79;94634.34;5072029;28;20252;-76
2023/07/24 10:04:00;;;;;;;15.55;9.80;;;;;;;32.93;35.80;94625.09;5082503;28;20309;-77
2023/07/24 10:06:29;;;;;;;18.92;10.63;;;;;;;33.68;34.87;94613.81;5072701;28;20253;-76
2023/07/24 10:08:56;;;;;;;17.23;9.75;;;;;;;33.84;34.37;94619.06;5070638;28;20302;-76
2023/07/24 10:11:24;;;;;;;13.68;9.25;;;;;;;34.12;34.15;94616.03;5070904;28;20276;-77
2023/07/24 10:13:51;;;;;;;14.13;9.15;;;;;;;33.77;32.70;94619.41;5070893;28;20203;-76
2023/07/24 10:16:18;;;;;;;16.08;9.60;;;;;;;33.51;32.75;94613.44;5070657;28;20313;-75
2023/07/24 10:18:47;;;;;;;17.05;9.32;;;;;;;32.99;32.98;94611.19;5070240;28;20662;-77
2023/07/24 10:21:14;;;;;;;16.27;9.88;;;;;;;32.90;33.19;94614.81;5057258;28;20195;-77
2023/07/24 10:23:43;;;;;;;18.35;10.25;;;;;;;33.03;33.19;94606.97;5070204;28;20214;-74
2023/07/24 10:26:10;;;;;;;16.27;9.00;;;;;;;32.70;33.83;94601.28;5070267;28;20215;-77
2023/07/24 10:28:39;;;;;;;20.23;9.38;;;;;;;32.33;34.14;94603.38;5069966;28;20207;-74
2023/07/24 10:31:08;;;;;;;14.32;8.82;;;;;;;32.39;34.19;94604.28;5078044;28;20589;-75
2023/07/24 10:33:37;;;;;;;17.73;9.52;;;;;;;31.98;35.26;94602.16;5075682;28;20198;-76
2023/07/24 10:36:10;;;;;;;17.80;9.38;;;;;;;32.57;35.28;94597.09;5069670;28;20280;-77
2023/07/24 10:38:38;;;;;;;17.52;7.55;;;;;;;33.10;35.39;94594.59;5069641;28;20249;-77
2023/07/24 10:41:09;;;;;;;12.48;7.03;;;;;;;33.45;33.81;94580.88;5069735;28;20203;-76
2023/07/24 10:43:43;;;;;;;13.63;7.88;;;;;;;33.87;33.39;94583.59;5070074;28;20211;-77
2023/07/24 10:46:10;;;;;;;16.85;7.88;;;;;;;33.92;33.23;94585.72;5069397;28;20202;-77
2023/07/24 10:48:38;;;;;;;18.58;8.93;;;;;;;34.35;32.93;94595.53;5070259;28;20203;-76
2023/07/24 10:51:13;;;;;;;14.32;6.97;;;;;;;34.46;33.13;94595.72;5070456;28;20202;-75
2023/07/24 10:53:46;;;;;;;16.98;7.20;;;;;;;34.63;32.83;94581.19;5069489;28;20198;-74
2023/07/24 10:56:13;;;;;;;16.33;7.53;;;;;;;33.95;32.88;94581.94;5070247;28;20236;-76
2023/07/24 10:58:40;;;;;;;17.10;7.40;;;;;;;34.66;32.50;94574.59;5069963;28;20203;-76
2023/07/24 11:01:08;;;;;;;16.15;6.70;;;;;;;34.81;32.01;94569.75;5071669;28;20207;-74
2023/07/24 11:03:37;;;;;;;13.82;7.47;;;;;;;34.65;32.06;94573.03;5069923;28;20199;-77
2023/07/24 11:06:05;;;;;;;20.85;7.30;;;;;;;35.17;31.40;94569.28;5069922;28;20260;-77
2023/07/24 11:08:36;;;;;;;12.00;6.68;;;;;;;34.79;31.35;94566.66;5070024;28;20980;-75
2023/07/24 11:11:04;;;;;;;16.67;7.07;;;;;;;34.89;31.78;94568.09;5069628;28;20195;-77
2023/07/24 11:13:30;;;;;;;15.73;6.65;;;;;;;35.23;30.92;94550.44;5069875;28;20205;-76
2023/07/24 11:15:57;;;;;;;11.20;7.20;;;;;;;35.63;31.41;94554.59;5069408;28;20259;-77
2023/07/24 11:18:26;;;;;;;14.63;6.93;;;;;;;35.70;31.27;94554.16;5069321;28;20199;-76
2023/07/24 11:20:54;;;;;;;11.82;6.80;;;;;;;35.55;32.13;94554.22;5069516;28;20203;-76
2023/07/24 11:23:21;;;;;;;12.77;6.57;;;;;;;35.69;30.29;94541.34;5069549;28;20203;-76
2023/07/24 11:25:51;;;;;;;12.30;6.60;;;;;;;35.67;30.44;94543.91;5069354;28;20666;-77